createdAt,value
2019-01-04T00:00:37.326Z,6.70
2019-01-04T00:03:08.277Z,5.93
2019-01-04T00:05:39.590Z,6.53
2019-01-04T00:08:12.037Z,5.93
2019-01-04T00:10:44.934Z,5.30
2019-01-04T00:13:15.262Z,6.47
2019-01-04T00:15:46.818Z,7.00
2019-01-04T00:18:19.717Z,6.60
2019-01-04T00:20:49.673Z,6.27
2019-01-04T00:23:19.758Z,6.30
2019-01-04T00:25:49.650Z,5.87
2019-01-04T00:28:20.661Z,6.10
2019-01-04T00:30:54.038Z,6.40
2019-01-04T00:33:23.793Z,5.77
2019-01-04T00:35:54.830Z,6.00
2019-01-04T00:38:25.966Z,5.97
2019-01-04T00:40:59.537Z,7.27
2019-01-04T00:43:31.158Z,6.40
2019-01-04T00:46:02.940Z,7.03
2019-01-04T00:48:32.801Z,6.93
2019-01-04T00:51:03.825Z,7.97
2019-01-04T00:53:36.773Z,8.27
2019-01-04T00:56:22.113Z,7.97
2019-01-04T00:59:18.201Z,7.60
2019-01-04T01:01:53.948Z,7.47
2019-01-04T01:04:44.565Z,9.43
2019-01-04T01:07:27.861Z,9.67
2019-01-04T01:10:24.137Z,9.33
2019-01-04T01:13:24.626Z,8.23
2019-01-04T01:16:31.893Z,9.60
2019-01-04T01:19:07.949Z,8.57
2019-01-04T01:21:42.325Z,8.30
2019-01-04T01:24:51.678Z,8.40
2019-01-04T01:27:44.073Z,7.67
2019-01-04T01:30:19.761Z,8.63
2019-01-04T01:33:10.314Z,8.20
2019-01-04T01:35:59.331Z,8.23
2019-01-04T01:38:59.314Z,9.30
2019-01-04T01:41:32.933Z,8.97
2019-01-04T01:44:21.825Z,9.37
2019-01-04T01:46:56.292Z,9.27
2019-01-04T01:49:45.603Z,9.87
2019-01-04T01:52:25.554Z,9.83
2019-01-04T01:54:58.028Z,13.27
2019-01-04T01:57:29.179Z,10.43
2019-01-04T01:59:59.053Z,10.30
2019-01-04T02:02:28.842Z,9.33
2019-01-04T02:05:00.128Z,9.73
2019-01-04T02:07:34.373Z,7.67
2019-01-04T02:10:07.894Z,9.40
2019-01-04T02:12:37.761Z,9.27
2019-01-04T02:15:08.694Z,8.50
2019-01-04T02:17:39.818Z,9.53
2019-01-04T02:20:10.114Z,9.37
2019-01-04T02:22:42.287Z,10.17
2019-01-04T02:25:16.198Z,9.70
2019-01-04T02:27:46.479Z,8.77
2019-01-04T02:30:17.695Z,9.57
2019-01-04T02:32:48.630Z,7.93
2019-01-04T02:35:19.581Z,9.90
2019-01-04T02:37:49.552Z,10.13
2019-01-04T02:40:19.656Z,10.70
2019-01-04T02:42:52.042Z,10.40
2019-01-04T02:45:22.850Z,10.23
2019-01-04T02:47:53.900Z,11.03
2019-01-04T02:50:24.072Z,10.87
2019-01-04T02:52:53.868Z,10.70
2019-01-04T02:55:24.045Z,10.53
2019-01-04T02:57:55.283Z,11.30
2019-01-04T03:00:25.473Z,11.17
2019-01-04T03:02:56.639Z,10.77
2019-01-04T03:05:28.499Z,10.83
2019-01-04T03:07:59.934Z,11.80
2019-01-04T03:10:30.145Z,14.50
2019-01-04T03:13:02.157Z,12.97
2019-01-04T03:15:32.975Z,12.00
2019-01-04T03:18:03.690Z,11.80
2019-01-04T03:20:33.851Z,13.20
2019-01-04T03:23:04.910Z,12.60
2019-01-04T03:25:36.685Z,13.13
2019-01-04T03:28:06.844Z,12.50
2019-01-04T03:30:37.042Z,12.30
2019-01-04T03:33:08.579Z,12.73
2019-01-04T03:35:38.897Z,11.77
2019-01-04T03:38:12.934Z,11.60
2019-01-04T03:40:43.742Z,11.70
2019-01-04T03:43:15.899Z,12.60
2019-01-04T03:45:49.990Z,12.03
2019-01-04T03:48:20.326Z,12.93
2019-01-04T03:50:54.109Z,12.57
2019-01-04T03:53:24.266Z,13.57
2019-01-04T03:55:56.874Z,13.30
2019-01-04T03:58:27.071Z,10.17
2019-01-04T04:01:00.102Z,12.13
2019-01-04T04:03:29.867Z,12.53
2019-01-04T04:06:00.917Z,13.20
2019-01-04T04:08:31.188Z,11.77
2019-01-04T04:11:02.320Z,13.57
2019-01-04T04:13:36.519Z,13.90
2019-01-04T04:16:07.759Z,11.20
2019-01-04T04:18:38.047Z,11.03
2019-01-04T04:21:09.268Z,10.90
2019-01-04T04:23:40.722Z,10.63
2019-01-04T04:26:11.043Z,10.57
2019-01-04T04:28:42.938Z,10.63
2019-01-04T04:31:15.749Z,10.57
2019-01-04T04:33:47.457Z,11.00
2019-01-04T04:36:18.593Z,11.23
2019-01-04T04:38:49.669Z,10.10
2019-01-04T04:41:20.871Z,10.43
2019-01-04T04:43:53.295Z,10.97
2019-01-04T04:46:24.098Z,10.50
2019-01-04T04:48:54.180Z,10.40
2019-01-04T04:51:25.332Z,10.47
2019-01-04T04:53:56.413Z,11.27
2019-01-04T04:56:26.654Z,10.40
2019-01-04T04:58:58.425Z,11.73
2019-01-04T05:01:30.185Z,11.37
2019-01-04T05:04:00.300Z,10.53
2019-01-04T05:06:33.530Z,10.97
2019-01-04T05:09:05.769Z,16.50
2019-01-04T05:11:36.193Z,12.40
2019-01-04T05:14:08.825Z,11.30
2019-01-04T05:16:39.094Z,12.47
2019-01-04T05:19:09.488Z,14.03
2019-01-04T05:21:43.050Z,13.77
2019-01-04T05:24:14.303Z,13.17
2019-01-04T05:26:45.137Z,13.77
2019-01-04T05:29:15.285Z,13.57
2019-01-04T05:31:45.934Z,14.47
2019-01-04T05:34:19.175Z,13.63
2019-01-04T05:36:49.753Z,13.97
2019-01-04T05:39:22.029Z,13.93
2019-01-04T05:41:52.234Z,13.40
2019-01-04T05:44:23.503Z,14.30
2019-01-04T05:46:54.233Z,13.37
2019-01-04T05:49:25.321Z,22.93
2019-01-04T05:51:57.060Z,12.83
2019-01-04T05:54:30.698Z,14.10
2019-01-04T05:57:01.677Z,13.03
2019-01-04T05:59:33.013Z,12.73
2019-01-04T06:02:03.877Z,12.87
2019-01-04T06:04:33.987Z,13.30
2019-01-04T06:07:05.197Z,12.77
2019-01-04T06:09:35.070Z,13.27
2019-01-04T06:12:06.213Z,13.50
2019-01-04T06:14:38.257Z,12.50
2019-01-04T06:17:08.168Z,14.30
2019-01-04T06:19:41.370Z,13.90
2019-01-04T06:22:10.782Z,14.07
2019-01-04T06:24:42.594Z,14.23
2019-01-04T06:27:12.810Z,14.03
2019-01-04T06:29:44.706Z,14.57
2019-01-04T06:32:16.045Z,14.40
2019-01-04T06:34:45.803Z,11.13
2019-01-04T06:37:18.739Z,14.33
2019-01-04T06:39:49.535Z,16.30
2019-01-04T06:42:20.655Z,16.63
2019-01-04T06:44:51.515Z,15.83
2019-01-04T06:47:21.673Z,17.50
2019-01-04T06:49:52.857Z,16.93
2019-01-04T06:52:23.550Z,15.20
2019-01-04T06:55:12.232Z,14.97
2019-01-04T06:57:44.013Z,14.67
2019-01-04T07:00:14.702Z,15.00
2019-01-04T07:02:45.365Z,15.00
2019-01-04T07:05:16.385Z,16.03
2019-01-04T07:07:46.762Z,15.70
2019-01-04T07:10:19.287Z,16.77
2019-01-04T07:12:49.588Z,17.80
2019-01-04T07:15:20.727Z,16.90
2019-01-04T07:17:51.050Z,20.03
2019-01-04T07:20:21.202Z,18.30
2019-01-04T07:22:53.213Z,19.43
2019-01-04T07:25:24.297Z,21.53
2019-01-04T07:27:55.320Z,17.50
2019-01-04T07:30:27.349Z,17.67
2019-01-04T07:32:59.837Z,17.77
2019-01-04T07:35:30.864Z,24.27
2019-01-04T07:40:52.118Z,24.27
2019-01-04T07:43:22.314Z,27.20
2019-01-04T07:45:52.606Z,27.93
2019-01-04T07:48:26.389Z,30.30
2019-01-04T07:50:58.129Z,29.93
2019-01-04T07:53:28.038Z,27.40
2019-01-04T07:55:58.309Z,33.83
2019-01-04T07:58:29.365Z,31.73
2019-01-04T08:00:59.965Z,28.60
2019-01-04T08:03:30.817Z,27.67
2019-01-04T08:06:02.048Z,27.57
2019-01-04T08:08:33.594Z,26.60
2019-01-04T08:11:04.085Z,24.60
2019-01-04T08:13:34.981Z,24.60
2019-01-04T08:16:05.065Z,24.37
2019-01-04T08:18:36.375Z,24.73
2019-01-04T08:21:09.709Z,24.00
2019-01-04T08:23:39.988Z,23.43
2019-01-04T08:26:10.818Z,21.27
2019-01-04T08:28:42.303Z,22.13
2019-01-04T08:31:12.989Z,21.00
2019-01-04T08:33:43.882Z,21.53
2019-01-04T08:36:17.062Z,19.43
2019-01-04T08:38:47.790Z,20.20
2019-01-04T08:41:17.525Z,20.97
2019-01-04T08:43:49.481Z,21.73
2019-01-04T08:46:22.425Z,20.83
2019-01-04T08:48:53.635Z,20.67
2019-01-04T08:51:24.452Z,19.27
2019-01-04T08:53:59.101Z,18.93
2019-01-04T08:56:34.389Z,19.23
2019-01-04T08:59:05.531Z,18.40
2019-01-04T09:01:37.612Z,17.97
2019-01-04T09:04:09.683Z,17.33
2019-01-04T09:06:40.838Z,17.97
2019-01-04T09:09:11.041Z,17.80
2019-01-04T09:11:41.822Z,16.27
2019-01-04T09:14:22.359Z,17.43
2019-01-04T09:16:53.369Z,16.27
2019-01-04T09:19:24.246Z,16.97
2019-01-04T09:21:55.261Z,17.47
2019-01-04T09:24:27.826Z,16.73
2019-01-04T09:26:58.033Z,19.20
2019-01-04T09:29:31.398Z,19.80
2019-01-04T09:32:03.816Z,20.20
2019-01-04T09:34:34.695Z,21.77
2019-01-04T09:37:05.821Z,21.77
2019-01-04T09:39:37.400Z,21.67
2019-01-04T09:42:08.210Z,20.90
2019-01-04T09:44:39.300Z,22.77
2019-01-04T09:47:10.469Z,21.90
2019-01-04T09:49:42.176Z,20.53
2019-01-04T09:52:12.333Z,21.63
2019-01-04T09:54:42.526Z,22.00
2019-01-04T09:57:13.293Z,20.70
2019-01-04T09:59:44.484Z,22.00
2019-01-04T10:02:16.591Z,22.80
2019-01-04T10:04:50.073Z,19.37
2019-01-04T10:07:21.056Z,19.60
2019-01-04T10:09:51.142Z,20.33
2019-01-04T10:12:22.349Z,18.87
2019-01-04T10:14:55.781Z,18.07
2019-01-04T10:17:26.859Z,17.70
2019-01-04T10:19:57.032Z,17.27
2019-01-04T10:22:28.083Z,16.50
2019-01-04T10:25:00.845Z,14.70
2019-01-04T10:27:33.806Z,14.43
2019-01-04T10:30:05.146Z,13.27
2019-01-04T10:32:37.228Z,13.33
2019-01-04T10:35:10.695Z,14.03
2019-01-04T10:37:41.078Z,14.80
2019-01-04T10:40:11.401Z,15.43
2019-01-04T10:42:42.501Z,14.90
2019-01-04T10:45:15.429Z,12.97
2019-01-04T10:47:46.625Z,16.57
2019-01-04T10:50:17.054Z,15.80
2019-01-04T10:52:47.202Z,16.27
2019-01-04T10:55:18.099Z,16.20
2019-01-04T10:57:48.258Z,16.53
2019-01-04T11:00:20.317Z,17.07
2019-01-04T11:02:51.562Z,17.00
2019-01-04T11:05:22.329Z,16.87
2019-01-04T11:07:54.201Z,16.53
2019-01-04T11:10:25.392Z,16.47
2019-01-04T11:12:56.865Z,16.03
2019-01-04T11:15:27.677Z,14.37
2019-01-04T11:17:58.705Z,14.60
2019-01-04T11:20:44.957Z,14.50
2019-01-04T11:23:36.597Z,15.57
2019-01-04T11:26:09.633Z,15.90
2019-01-04T11:28:40.937Z,13.63
2019-01-04T11:31:21.858Z,14.57
2019-01-04T11:33:55.153Z,14.33
2019-01-04T11:36:25.812Z,13.57
2019-01-04T11:39:13.735Z,14.80
2019-01-04T11:42:05.109Z,14.17
2019-01-04T11:44:45.989Z,13.93
2019-01-04T11:47:20.382Z,14.07
2019-01-04T11:50:00.782Z,13.77
2019-01-04T11:52:32.013Z,14.30
2019-01-04T11:55:02.689Z,13.70
2019-01-04T11:57:33.451Z,14.60
2019-01-04T12:00:03.967Z,13.03
2019-01-04T12:02:35.086Z,13.23
2019-01-04T12:05:08.430Z,12.47
2019-01-04T12:07:41.061Z,11.70
2019-01-04T12:10:11.677Z,13.37
2019-01-04T12:12:41.418Z,14.47
2019-01-04T12:15:11.622Z,13.77
2019-01-04T12:17:41.390Z,14.47
2019-01-04T12:20:12.442Z,15.03
2019-01-04T12:22:42.618Z,15.90
2019-01-04T12:25:13.478Z,16.33
2019-01-04T12:27:44.579Z,16.10
2019-01-04T12:30:15.421Z,17.07
2019-01-04T12:32:46.906Z,18.27
2019-01-04T12:35:16.749Z,17.77
2019-01-04T12:37:47.795Z,17.60
2019-01-04T12:40:18.598Z,17.57
2019-01-04T12:42:50.801Z,19.17
2019-01-04T12:45:21.571Z,20.70
2019-01-04T12:47:52.526Z,21.30
2019-01-04T12:50:25.349Z,20.90
2019-01-04T12:52:59.064Z,22.30
2019-01-04T12:55:29.837Z,22.93
2019-01-04T12:58:01.570Z,25.17
2019-01-04T13:00:33.873Z,24.93
2019-01-04T13:03:04.053Z,25.07
2019-01-04T13:05:34.781Z,25.27
2019-01-04T13:08:04.550Z,26.83
2019-01-04T13:10:35.752Z,26.43
2019-01-04T13:13:09.574Z,28.03
2019-01-04T13:15:39.537Z,28.80
2019-01-04T13:18:13.192Z,27.27
2019-01-04T13:20:44.397Z,28.00
2019-01-04T13:23:15.529Z,29.83
2019-01-04T13:25:45.842Z,28.73
2019-01-04T13:28:18.157Z,29.80
2019-01-04T13:30:49.363Z,28.87
2019-01-04T13:33:20.269Z,29.57
2019-01-04T13:35:51.026Z,32.60
2019-01-04T13:38:21.113Z,31.43
2019-01-04T13:40:52.234Z,32.30
2019-01-04T13:43:23.515Z,31.67
2019-01-04T13:45:53.689Z,31.90
2019-01-04T13:48:23.882Z,29.23
2019-01-04T13:50:56.715Z,28.00
2019-01-04T13:53:26.588Z,31.37
2019-01-04T13:55:59.303Z,31.03
2019-01-04T13:58:29.137Z,31.40
2019-01-04T14:01:00.109Z,30.87
2019-01-04T14:03:30.289Z,31.33
2019-01-04T14:06:02.912Z,30.83
2019-01-04T14:08:34.359Z,29.90
2019-01-04T14:11:05.565Z,29.97
2019-01-04T14:13:36.703Z,28.97
2019-01-04T14:16:07.124Z,28.60
2019-01-04T14:18:38.294Z,28.33
2019-01-04T14:21:09.591Z,30.00
2019-01-04T14:23:41.054Z,28.37
2019-01-04T14:26:12.173Z,27.80
2019-01-04T14:28:43.113Z,28.00
2019-01-04T14:31:15.649Z,28.57
2019-01-04T14:33:48.649Z,28.20
2019-01-04T14:36:18.936Z,25.80
2019-01-04T14:38:50.098Z,29.27
2019-01-04T14:41:23.413Z,28.47
2019-01-04T14:43:55.269Z,30.30
2019-01-04T14:46:25.880Z,28.37
2019-01-04T14:48:56.082Z,29.00
2019-01-04T14:51:30.278Z,30.50
2019-01-04T14:54:02.773Z,29.87
2019-01-04T14:56:35.181Z,27.87
2019-01-04T14:59:06.684Z,30.63
2019-01-04T15:01:37.843Z,29.87
2019-01-04T15:04:10.340Z,30.50
2019-01-04T15:06:43.242Z,31.13
2019-01-04T15:09:14.485Z,32.00
2019-01-04T15:11:45.694Z,31.77
2019-01-04T15:14:16.867Z,32.70
2019-01-04T15:16:49.320Z,33.63
2019-01-04T15:19:30.621Z,34.87
2019-01-04T15:22:01.625Z,32.60
2019-01-04T15:24:31.799Z,33.70
2019-01-04T15:27:02.453Z,32.80
2019-01-04T15:29:33.717Z,32.47
2019-01-04T15:32:05.314Z,32.67
2019-01-04T15:34:37.913Z,32.00
2019-01-04T15:37:08.870Z,34.50
2019-01-04T15:39:41.607Z,32.07
2019-01-04T15:42:11.766Z,33.90
2019-01-04T15:44:42.636Z,35.17
2019-01-04T15:47:12.786Z,36.40
2019-01-04T15:49:43.920Z,36.10
2019-01-04T15:52:14.132Z,37.87
2019-01-04T15:54:44.261Z,38.77
2019-01-04T15:57:14.531Z,40.77
2019-01-04T15:59:44.747Z,38.47
2019-01-04T16:02:16.784Z,38.77
2019-01-04T16:04:49.644Z,39.63
2019-01-04T16:07:20.466Z,40.00
2019-01-04T16:09:51.186Z,40.10
2019-01-04T16:12:22.344Z,39.37
2019-01-04T16:14:53.655Z,37.17
2019-01-04T16:17:24.457Z,42.50
2019-01-04T16:19:56.730Z,43.67
2019-01-04T16:22:28.803Z,43.27
2019-01-04T16:25:01.758Z,43.43
2019-01-04T16:27:32.513Z,41.13
2019-01-04T16:30:03.210Z,41.93
2019-01-04T16:32:34.626Z,43.10
2019-01-04T16:35:06.637Z,43.33
2019-01-04T16:37:36.774Z,44.10
2019-01-04T16:40:08.885Z,48.00
2019-01-04T16:42:39.693Z,46.17
2019-01-04T16:45:10.870Z,46.97
2019-01-04T16:47:42.521Z,47.47
2019-01-04T16:50:13.605Z,49.73
2019-01-04T16:52:44.343Z,46.70
2019-01-04T16:55:14.561Z,47.73
2019-01-04T16:57:49.813Z,48.60
2019-01-04T17:00:20.152Z,43.80
2019-01-04T17:02:50.045Z,47.80
2019-01-04T17:05:20.244Z,46.17
2019-01-04T17:07:50.370Z,45.47
2019-01-04T17:10:21.294Z,46.03
2019-01-04T17:12:52.586Z,46.27
2019-01-04T17:15:23.771Z,45.20
2019-01-04T17:17:56.570Z,44.50
2019-01-04T17:20:30.442Z,45.03
2019-01-04T17:23:01.153Z,47.53
2019-01-04T17:25:31.873Z,47.00
2019-01-04T17:28:02.033Z,46.37
2019-01-04T17:30:33.053Z,46.83
2019-01-04T17:33:03.465Z,45.57
2019-01-04T17:35:34.717Z,47.80
2019-01-04T17:38:07.024Z,45.83
2019-01-04T17:40:37.256Z,47.60
2019-01-04T17:43:08.461Z,45.73
2019-01-04T17:45:41.250Z,48.33
2019-01-04T17:48:11.454Z,47.80
2019-01-04T17:50:42.601Z,47.03
2019-01-04T17:53:14.385Z,47.27
2019-01-04T17:55:45.397Z,49.40
2019-01-04T17:58:17.377Z,51.23
2019-01-04T18:00:48.398Z,47.00
2019-01-04T18:03:19.232Z,48.93
2019-01-04T18:05:49.197Z,48.73
2019-01-04T18:08:19.289Z,44.23
2019-01-04T18:10:50.458Z,51.83
2019-01-04T18:13:21.246Z,48.67
2019-01-04T18:15:53.262Z,48.57
2019-01-04T18:18:23.642Z,51.40
2019-01-04T18:20:55.173Z,51.63
2019-01-04T18:23:27.037Z,50.77
2019-01-04T18:26:00.722Z,46.17
2019-01-04T18:28:31.705Z,49.57
2019-01-04T18:31:03.171Z,51.57
2019-01-04T18:33:37.073Z,51.90
2019-01-04T18:36:08.188Z,52.20
2019-01-04T18:38:37.556Z,51.23
2019-01-04T18:41:11.306Z,51.50
2019-01-04T18:43:41.517Z,51.30
2019-01-04T18:46:13.473Z,50.33
2019-01-04T18:48:45.913Z,49.90
2019-01-04T18:51:16.110Z,50.57
2019-01-04T18:53:46.318Z,51.07
2019-01-04T18:56:17.119Z,50.13
2019-01-04T18:58:47.144Z,44.57
2019-01-04T19:01:17.380Z,48.77
2019-01-04T19:03:48.598Z,49.57
2019-01-04T19:06:20.549Z,50.20
2019-01-04T19:08:51.401Z,49.87
2019-01-04T19:11:23.066Z,49.87
2019-01-04T19:13:54.482Z,48.53
2019-01-04T19:16:24.373Z,44.07
2019-01-04T19:18:54.570Z,48.50
2019-01-04T19:21:24.664Z,49.07
2019-01-04T19:23:58.302Z,50.67
2019-01-04T19:26:30.392Z,49.00
2019-01-04T19:29:02.851Z,48.50
2019-01-04T19:31:33.585Z,47.83
2019-01-04T19:34:03.662Z,43.13
2019-01-04T19:36:34.843Z,46.93
2019-01-04T19:39:06.485Z,46.93
2019-01-04T19:41:36.691Z,49.50
2019-01-04T19:44:08.320Z,48.23
2019-01-04T19:46:40.586Z,48.53
2019-01-04T19:49:13.928Z,47.00
2019-01-04T19:51:45.294Z,46.97
2019-01-04T19:54:15.219Z,48.30
2019-01-04T19:56:45.893Z,46.90
2019-01-04T19:59:18.317Z,48.03
2019-01-04T20:01:50.883Z,47.33
2019-01-04T20:04:20.684Z,48.23
2019-01-04T20:07:16.156Z,46.93
2019-01-04T20:09:58.445Z,48.77
2019-01-04T20:12:45.346Z,46.67
2019-01-04T20:15:25.377Z,48.53
2019-01-04T20:18:14.493Z,47.30
2019-01-04T20:21:06.401Z,48.13
2019-01-04T20:23:42.109Z,48.30
2019-01-04T20:26:15.621Z,47.43
2019-01-04T20:28:50.092Z,45.20
2019-01-04T20:31:38.307Z,47.03
2019-01-04T20:34:15.902Z,44.43
2019-01-04T20:37:04.950Z,46.90
2019-01-04T20:39:36.675Z,44.70
2019-01-04T20:42:12.631Z,43.73
2019-01-04T20:44:58.610Z,45.87
2019-01-04T20:47:31.334Z,43.93
2019-01-04T20:50:19.976Z,45.43
2019-01-04T20:52:57.487Z,46.37
2019-01-04T20:55:35.726Z,45.67
2019-01-04T20:58:18.791Z,46.57
2019-01-04T21:01:07.347Z,44.23
2019-01-04T21:03:53.770Z,47.30
2019-01-04T21:06:28.043Z,46.60
2019-01-04T21:09:00.629Z,46.73
2019-01-04T21:11:36.024Z,44.93
2019-01-04T21:14:22.210Z,45.70
2019-01-04T21:17:11.186Z,46.87
2019-01-04T21:19:43.925Z,42.00
2019-01-04T21:22:34.401Z,47.10
2019-01-04T21:25:22.328Z,44.97
2019-01-04T21:28:06.910Z,45.07
2019-01-04T21:30:38.741Z,45.27
2019-01-04T21:33:23.193Z,44.57
2019-01-04T21:35:56.229Z,42.90
2019-01-04T21:38:30.782Z,42.23
2019-01-04T21:41:05.797Z,46.07
2019-01-04T21:43:53.875Z,44.40
2019-01-04T21:46:26.386Z,43.43
2019-01-04T21:49:14.208Z,44.60
2019-01-04T21:51:51.658Z,43.30
2019-01-04T21:54:24.531Z,42.23
2019-01-04T21:57:13.438Z,43.10
2019-01-04T21:59:55.809Z,39.83
2019-01-04T22:02:28.754Z,42.43
2019-01-04T22:05:03.106Z,40.43
2019-01-04T22:07:44.171Z,41.83
2019-01-04T22:10:34.101Z,40.80
2019-01-04T22:13:26.697Z,40.93
2019-01-04T22:15:58.222Z,39.90
2019-01-04T22:18:36.756Z,37.53
2019-01-04T22:21:12.073Z,40.53
2019-01-04T22:23:47.077Z,40.73
2019-01-04T22:26:27.338Z,41.60
2019-01-04T22:28:58.346Z,42.57
2019-01-04T22:31:35.642Z,44.70
2019-01-04T22:34:24.131Z,46.97
2019-01-04T22:36:55.687Z,44.87
2019-01-04T22:39:30.689Z,42.40
2019-01-04T22:42:12.545Z,42.73
2019-01-04T22:44:56.437Z,42.10
2019-01-04T22:47:41.082Z,39.27
2019-01-04T22:50:28.485Z,40.87
2019-01-04T22:53:17.706Z,40.67
2019-01-04T22:56:01.462Z,40.33
2019-01-04T22:58:38.783Z,40.67
2019-01-04T23:01:14.386Z,41.40
2019-01-04T23:03:52.540Z,40.20
2019-01-04T23:06:23.939Z,40.10
2019-01-04T23:08:58.810Z,38.53
2019-01-04T23:11:48.493Z,38.27
2019-01-04T23:14:22.458Z,37.53
2019-01-04T23:17:02.919Z,35.97
2019-01-04T23:19:53.110Z,37.27
2019-01-04T23:22:33.253Z,36.70
2019-01-04T23:25:23.941Z,36.33
2019-01-04T23:28:03.298Z,35.30
2019-01-04T23:30:42.931Z,34.10
2019-01-04T23:33:14.272Z,33.37
2019-01-04T23:36:05.162Z,33.97
2019-01-04T23:38:47.019Z,33.93
2019-01-04T23:41:34.894Z,35.40
2019-01-04T23:44:24.065Z,36.53
2019-01-04T23:47:12.241Z,63.67
2019-01-04T23:50:00.203Z,38.47
2019-01-04T23:52:34.275Z,39.73
2019-01-04T23:55:06.881Z,41.07
2019-01-04T23:57:56.597Z,40.80
